createdAt,value
2022-09-06T00:02:09.983Z,84.99
2022-09-06T00:07:11.867Z,84.12
2022-09-06T00:12:13.222Z,84.35
2022-09-06T00:17:14.638Z,83.19
2022-09-06T00:22:15.983Z,83.45
2022-09-06T00:27:17.315Z,82.54
2022-09-06T00:32:18.649Z,79.94
2022-09-06T00:37:19.992Z,79.18
2022-09-06T00:42:21.351Z,80.26
2022-09-06T00:47:22.785Z,79.51
2022-09-06T00:52:25.250Z,79.44
2022-09-06T00:57:27.330Z,80.37
2022-09-06T01:02:28.856Z,79.12
2022-09-06T01:07:48.909Z,79.90
2022-09-06T01:12:50.248Z,81.57
2022-09-06T01:18:06.863Z,79.03
2022-09-06T01:23:28.747Z,79.09
2022-09-06T01:28:30.090Z,78.82
2022-09-06T01:33:35.169Z,80.23
2022-09-06T01:38:36.932Z,79.92
2022-09-06T01:43:39.750Z,82.36
2022-09-06T01:48:53.429Z,77.46
2022-09-06T01:54:10.083Z,75.24
2022-09-06T01:59:36.208Z,76.27
2022-09-06T02:04:57.163Z,76.07
2022-09-06T02:10:09.772Z,75.79
2022-09-06T02:15:14.654Z,76.38
2022-09-06T02:20:18.048Z,74.02
2022-09-06T02:25:24.187Z,75.27
2022-09-06T02:30:25.609Z,76.46
2022-09-06T02:35:27.080Z,77.78
2022-09-06T02:40:28.470Z,79.90
2022-09-06T02:45:29.820Z,81.20
2022-09-06T02:50:31.285Z,81.36
2022-09-06T02:55:33.320Z,83.21
2022-09-06T03:00:34.934Z,85.11
2022-09-06T03:05:36.424Z,84.84
2022-09-06T03:10:38.028Z,86.07
2022-09-06T03:15:39.374Z,85.98
2022-09-06T03:20:40.744Z,86.29
2022-09-06T03:25:42.812Z,86.41
2022-09-06T03:30:44.739Z,88.37
2022-09-06T03:35:50.577Z,90.44
2022-09-06T03:40:52.955Z,91.22
2022-09-06T03:45:55.754Z,94.24
2022-09-06T03:50:58.020Z,95.23
2022-09-06T03:55:59.495Z,96.80
2022-09-06T04:01:01.983Z,97.98
2022-09-06T04:06:04.244Z,99.55
2022-09-06T04:11:06.307Z,99.83
2022-09-06T04:16:07.770Z,100.00
2022-09-06T04:21:09.232Z,100.00
2022-09-06T04:26:10.642Z,100.00
2022-09-06T04:31:12.029Z,100.00
2022-09-06T04:36:13.455Z,100.00
2022-09-06T04:41:15.839Z,100.00
2022-09-06T04:46:30.240Z,100.00
2022-09-06T04:51:31.660Z,100.00
2022-09-06T04:56:33.108Z,100.00
2022-09-06T05:01:34.569Z,100.00
2022-09-06T05:06:35.948Z,100.00
2022-09-06T05:11:37.409Z,100.00
2022-09-06T05:16:38.813Z,100.00
2022-09-06T05:21:40.264Z,100.00
2022-09-06T05:26:41.628Z,100.00
2022-09-06T05:31:43.105Z,100.00
2022-09-06T05:36:46.159Z,100.00
2022-09-06T05:41:47.716Z,100.00
2022-09-06T05:46:49.143Z,100.00
2022-09-06T05:51:51.652Z,100.00
2022-09-06T05:56:53.053Z,100.00
2022-09-06T06:01:54.510Z,100.00
2022-09-06T06:06:56.092Z,100.00
2022-09-06T06:11:57.477Z,97.29
2022-09-06T06:16:58.918Z,87.33
2022-09-06T06:22:00.315Z,69.93
2022-09-06T06:27:01.675Z,60.26
2022-09-06T06:32:03.198Z,57.82
2022-09-06T06:37:04.588Z,58.19
2022-09-06T06:42:06.008Z,52.69
2022-09-06T06:47:07.415Z,56.27
2022-09-06T06:52:08.758Z,50.16
2022-09-06T06:57:10.186Z,54.53
2022-09-06T07:02:11.929Z,55.33
2022-09-06T07:12:34.725Z,48.76
2022-09-06T07:17:36.078Z,48.32
2022-09-06T07:22:37.910Z,45.92
2022-09-06T07:27:47.420Z,44.91
2022-09-06T07:32:49.770Z,42.96
2022-09-06T07:37:54.806Z,44.70
2022-09-06T07:42:56.973Z,45.53
2022-09-06T07:47:59.668Z,44.76
2022-09-06T07:58:07.550Z,44.38
2022-09-06T08:03:09.319Z,44.18
2022-09-06T08:13:32.050Z,42.19
2022-09-06T08:18:33.825Z,41.22
2022-09-06T08:23:37.746Z,40.64
2022-09-06T08:28:39.241Z,40.39
2022-09-06T08:33:41.142Z,40.66
2022-09-06T08:38:42.612Z,39.38
2022-09-06T08:43:49.275Z,39.12
2022-09-06T08:48:50.770Z,39.34
2022-09-06T08:53:53.863Z,39.39
2022-09-06T08:59:11.887Z,39.99
2022-09-06T09:04:15.381Z,38.08
2022-09-06T09:09:16.802Z,37.78
2022-09-06T09:14:24.511Z,38.87
2022-09-06T09:19:25.868Z,39.51
2022-09-06T09:24:27.224Z,37.63
2022-09-06T09:29:32.102Z,35.80
2022-09-06T09:34:36.916Z,35.45
2022-09-06T09:39:39.514Z,32.96
2022-09-06T09:44:44.751Z,33.04
2022-09-06T09:49:46.129Z,34.93
2022-09-06T09:54:47.764Z,35.79
2022-09-06T09:59:52.256Z,33.81
2022-09-06T10:04:59.214Z,32.15
2022-09-06T10:10:10.969Z,32.25
2022-09-06T10:15:31.584Z,33.93
2022-09-06T10:20:41.381Z,33.64
2022-09-06T10:25:49.589Z,32.47
2022-09-06T10:31:10.264Z,33.21
2022-09-06T10:36:13.995Z,31.12
2022-09-06T10:41:43.117Z,31.90
2022-09-06T10:46:46.009Z,29.96
2022-09-06T10:51:56.556Z,32.18
2022-09-06T10:57:03.276Z,30.81
2022-09-06T11:02:23.559Z,29.89
2022-09-06T11:07:29.131Z,29.99
2022-09-06T11:12:33.430Z,31.27
2022-09-06T11:17:41.145Z,31.67
2022-09-06T11:22:42.485Z,30.30
2022-09-06T11:27:46.717Z,30.84
2022-09-06T11:32:52.422Z,29.85
2022-09-06T11:38:16.914Z,29.52
2022-09-06T11:43:38.233Z,30.80
2022-09-06T11:49:00.047Z,30.34
2022-09-06T11:54:06.101Z,30.41
2022-09-06T11:59:16.512Z,32.73
2022-09-06T12:04:17.903Z,34.16
2022-09-06T12:09:28.289Z,37.71
2022-09-06T12:14:29.620Z,33.03
2022-09-06T12:19:45.291Z,32.05
2022-09-06T12:24:46.622Z,32.05
2022-09-06T12:29:54.954Z,32.64
2022-09-06T12:40:19.646Z,34.05
2022-09-06T12:45:26.655Z,32.89
2022-09-06T12:50:31.511Z,33.46
2022-09-06T12:55:37.054Z,33.82
2022-09-06T13:00:49.319Z,33.77
2022-09-06T13:05:51.580Z,29.42
2022-09-06T13:10:53.412Z,27.80
2022-09-06T13:15:55.954Z,29.47
2022-09-06T13:21:02.472Z,30.68
2022-09-06T13:26:03.862Z,31.77
2022-09-06T13:31:10.944Z,35.28
2022-09-06T13:36:12.375Z,37.75
2022-09-06T13:41:25.772Z,38.87
2022-09-06T13:46:27.196Z,38.50
2022-09-06T13:51:29.242Z,40.19
2022-09-06T13:56:30.592Z,39.65
2022-09-06T14:01:33.028Z,40.20
2022-09-06T14:06:36.922Z,39.97
2022-09-06T14:11:38.739Z,40.34
2022-09-06T14:16:40.146Z,39.95
2022-09-06T14:21:41.541Z,39.67
2022-09-06T14:26:42.890Z,39.40
2022-09-06T14:31:44.255Z,38.66
2022-09-06T14:36:45.759Z,38.92
2022-09-06T14:41:47.135Z,39.75
2022-09-06T14:46:49.083Z,38.51
2022-09-06T14:51:51.644Z,42.76
2022-09-06T14:56:52.987Z,41.09
2022-09-06T15:01:54.558Z,36.49
2022-09-06T15:06:56.066Z,36.43
2022-09-06T15:11:57.420Z,36.80
2022-09-06T15:16:59.973Z,35.85
2022-09-06T15:22:01.324Z,36.15
2022-09-06T15:27:02.872Z,35.84
2022-09-06T15:32:04.277Z,36.93
2022-09-06T15:37:05.621Z,36.87
2022-09-06T15:42:07.104Z,37.67
2022-09-06T15:47:09.045Z,36.77
2022-09-06T15:52:10.702Z,36.66
2022-09-06T15:57:12.826Z,36.75
2022-09-06T16:02:14.647Z,37.54
2022-09-06T16:07:16.115Z,37.31
2022-09-06T16:12:17.464Z,36.84
2022-09-06T16:17:18.822Z,37.02
2022-09-06T16:22:20.212Z,37.90
2022-09-06T16:27:21.604Z,37.44
2022-09-06T16:32:23.140Z,37.63
2022-09-06T16:37:24.564Z,37.40
2022-09-06T16:42:25.917Z,38.23
2022-09-06T16:47:27.286Z,36.86
2022-09-06T16:52:30.052Z,36.83
2022-09-06T16:57:31.452Z,36.89
2022-09-06T17:02:33.346Z,39.26
2022-09-06T17:07:34.725Z,40.16
2022-09-06T17:12:36.092Z,40.65
2022-09-06T17:17:37.444Z,41.59
2022-09-06T17:22:38.812Z,42.83
2022-09-06T17:27:40.305Z,43.66
2022-09-06T17:32:41.657Z,44.37
2022-09-06T17:37:42.999Z,44.98
2022-09-06T17:42:44.846Z,44.53
2022-09-06T17:47:46.245Z,43.79
2022-09-06T17:52:50.189Z,45.17
2022-09-06T17:57:51.547Z,44.47
2022-09-06T18:02:52.954Z,44.56
2022-09-06T18:07:54.386Z,46.45
2022-09-06T18:12:55.754Z,47.68
2022-09-06T18:17:57.652Z,48.82
2022-09-06T18:23:00.268Z,49.11
2022-09-06T18:28:01.734Z,49.73
2022-09-06T18:33:03.134Z,50.18
2022-09-06T18:38:04.473Z,50.79
2022-09-06T18:43:05.854Z,51.29
2022-09-06T18:48:07.210Z,52.14
2022-09-06T18:53:08.611Z,52.77
2022-09-06T18:58:10.819Z,53.64
2022-09-06T19:03:12.170Z,52.99
2022-09-06T19:08:13.519Z,53.79
2022-09-06T19:13:14.876Z,54.56
2022-09-06T19:18:16.284Z,54.87
2022-09-06T19:23:17.671Z,54.99
2022-09-06T19:28:19.033Z,54.92
2022-09-06T19:38:21.754Z,53.99
2022-09-06T19:43:23.475Z,54.44
2022-09-06T19:48:25.784Z,54.48
2022-09-06T19:53:27.187Z,54.30
2022-09-06T19:58:29.318Z,54.93
2022-09-06T20:03:30.884Z,55.32
2022-09-06T20:08:32.312Z,55.94
2022-09-06T20:13:37.469Z,55.96
2022-09-06T20:18:39.293Z,57.72
2022-09-06T20:23:40.955Z,59.72
2022-09-06T20:28:44.011Z,60.23
2022-09-06T20:33:49.519Z,69.73
2022-09-06T20:38:51.427Z,70.27
2022-09-06T20:43:53.923Z,73.11
2022-09-06T20:48:56.283Z,74.65
2022-09-06T20:53:58.541Z,77.13
2022-09-06T20:59:01.008Z,77.83
2022-09-06T21:04:04.090Z,78.96
2022-09-06T21:09:06.426Z,82.70
2022-09-06T21:14:08.094Z,81.61
2022-09-06T21:19:10.489Z,84.65
2022-09-06T21:24:12.477Z,79.38
2022-09-06T21:29:13.886Z,79.33
2022-09-06T21:34:17.112Z,82.20
2022-09-06T21:39:18.779Z,84.10
2022-09-06T21:44:20.191Z,79.90
2022-09-06T21:49:21.594Z,79.34
2022-09-06T21:54:23.730Z,77.07
2022-09-06T21:59:25.352Z,74.87
2022-09-06T22:04:26.746Z,80.74
2022-09-06T22:09:28.192Z,80.77
2022-09-06T22:14:29.564Z,84.79
2022-09-06T22:19:30.963Z,83.66
2022-09-06T22:24:32.797Z,80.07
2022-09-06T22:29:34.185Z,78.47
2022-09-06T22:34:35.530Z,77.94
2022-09-06T22:39:36.911Z,75.37
2022-09-06T22:44:38.851Z,76.92
2022-09-06T22:49:40.205Z,76.49
2022-09-06T22:54:41.586Z,81.81
2022-09-06T22:59:42.977Z,79.50
2022-09-06T23:04:44.395Z,80.58
2022-09-06T23:09:45.847Z,78.11
2022-09-06T23:14:47.192Z,79.87
2022-09-06T23:19:48.654Z,77.65
2022-09-06T23:24:50.020Z,76.63
2022-09-06T23:29:51.405Z,77.64
2022-09-06T23:34:53.440Z,80.03
2022-09-06T23:39:54.931Z,76.65
2022-09-06T23:44:59.003Z,77.34
2022-09-06T23:50:00.377Z,79.00
2022-09-06T23:55:01.877Z,81.94
